South Lawrence, Massachusetts
Current Conditions -  °F | °C
As of 7:21 AM on Thursday 18 Dec 2014 (Local Time) from KLWM Reporting Station
Light Rain Light Rain  
Wind Chill: 27°   Ceiling: 1600
Heat Index: 35°   Visibility: 10mi
Dew Point: 33°   Wind: 12mph
Humidity: 92%   Direction: 250°WSW
Pressure: 29.74"   Gusts: NA
Location:  42.6899°N, 71.1616°W
Report Text: KLWM 181221Z 25010KT 10SM -RA SCT008 BKN016 OVC034 02/01 A2974 RMK AO2 P0000 T00170006
Loading
Personal Weather Stations






























Interactive Weather Map New forecast layout! Learn more

10-Day Weather Forecast

Advertisements
Track Severe Weather on mobile